Time;durP1;ratioP1;P1;durP2;ratioP2;P2;SDS_P1;SDS_P2;PMS_P1;PMS_P2;Temp;Humidity;BMP_temperature;BMP_pressure;BME280_temperature;BME280_humidity;BME280_pressure;Samples;Min_cycle;Max_cycle;Signal;HPM_P1;HPM_P2
2023/04/20 00:00:11;;;;;;;9.00;5.80;;;;;;;3.85;83.20;95314.20;106537;1276;25354;-64
2023/04/20 00:03:00;;;;;;;7.30;5.10;;;;;;;3.71;83.37;95313.80;106591;1276;24703;-65
2023/04/20 00:05:30;;;;;;;10.10;6.50;;;;;;;3.55;83.44;95316.52;106595;1276;22517;-65
2023/04/20 00:08:00;;;;;;;10.60;6.00;;;;;;;3.52;83.59;95313.02;106558;1276;22532;-65
2023/04/20 00:10:28;;;;;;;9.50;6.00;;;;;;;3.54;83.99;95311.14;106619;1276;22516;-65
2023/04/20 00:12:56;;;;;;;9.70;5.70;;;;;;;3.51;84.19;95307.11;106577;1276;22513;-65
2023/04/20 00:15:24;;;;;;;9.20;5.70;;;;;;;3.43;84.20;95308.46;106559;1276;24227;-64
2023/04/20 00:17:53;;;;;;;8.20;5.20;;;;;;;3.40;84.50;95306.55;106599;1276;22540;-65
2023/04/20 00:20:21;;;;;;;8.30;5.00;;;;;;;3.42;84.77;95304.83;106564;1276;22521;-65
2023/04/20 00:22:50;;;;;;;8.80;5.50;;;;;;;3.53;85.27;95302.09;106658;1276;22546;-66
2023/04/20 00:25:19;;;;;;;8.00;4.90;;;;;;;3.60;85.22;95302.11;106587;1276;25243;-65
2023/04/20 00:27:47;;;;;;;5.50;4.70;;;;;;;3.60;84.98;95300.37;106634;1276;22743;-65
2023/04/20 00:30:16;;;;;;;6.20;4.40;;;;;;;3.53;84.31;95300.00;106571;1276;22538;-65
2023/04/20 00:32:44;;;;;;;6.50;4.50;;;;;;;3.50;84.77;95295.28;106539;1276;23933;-65
2023/04/20 00:35:13;;;;;;;5.80;4.30;;;;;;;3.54;84.96;95296.01;106841;1276;25232;-65
2023/04/20 00:37:41;;;;;;;5.60;4.30;;;;;;;3.55;84.49;95297.21;106832;1276;24359;-65
2023/04/20 00:40:10;;;;;;;9.10;4.80;;;;;;;3.44;84.24;95296.31;106813;1276;24234;-65
2023/04/20 00:42:40;;;;;;;6.60;4.40;;;;;;;3.45;84.80;95290.58;106756;1276;25550;-65
2023/04/20 00:45:09;;;;;;;6.40;4.10;;;;;;;3.47;84.64;95291.09;106435;1276;22512;-65
2023/04/20 00:47:37;;;;;;;10.50;4.50;;;;;;;3.43;84.61;95290.73;106569;1275;22513;-65
2023/04/20 00:50:07;;;;;;;6.20;4.60;;;;;;;3.41;84.53;95290.55;106640;1253;22525;-65
2023/04/20 00:52:35;;;;;;;7.90;3.80;;;;;;;3.40;84.77;95289.52;106544;1276;25218;-66
2023/04/20 00:55:05;;;;;;;5.10;4.20;;;;;;;3.43;84.70;95286.73;106566;1276;24425;-65
2023/04/20 00:57:34;;;;;;;7.20;4.40;;;;;;;3.36;83.98;95284.98;106928;1276;24213;-65
2023/04/20 01:00:05;;;;;;;7.90;4.10;;;;;;;3.30;84.64;95283.73;106786;1276;23957;-65
2023/04/20 01:02:33;;;;;;;7.90;5.10;;;;;;;3.24;84.33;95287.17;106649;1276;22514;-65
2023/04/20 01:05:02;;;;;;;6.00;4.20;;;;;;;3.13;84.16;95282.77;106520;1263;24396;-65
2023/04/20 01:07:31;;;;;;;6.70;5.40;;;;;;;3.01;84.13;95281.51;106637;1265;22638;-65
2023/04/20 01:09:59;;;;;;;7.50;5.20;;;;;;;2.98;84.78;95282.01;106552;1276;24315;-65
2023/04/20 01:12:27;;;;;;;8.80;5.20;;;;;;;3.04;85.14;95280.12;106642;1276;25321;-65
2023/04/20 01:14:55;;;;;;;5.40;4.40;;;;;;;3.07;84.94;95285.52;106821;1276;25363;-65
2023/04/20 01:17:24;;;;;;;7.00;4.70;;;;;;;2.94;84.64;95283.71;106557;1276;23910;-65
2023/04/20 01:19:52;;;;;;;7.30;5.50;;;;;;;2.80;84.79;95283.12;106642;1276;22644;-65
2023/04/20 01:22:21;;;;;;;8.80;5.20;;;;;;;2.79;85.06;95280.85;106503;1276;25309;-65
2023/04/20 01:24:49;;;;;;;6.20;4.50;;;;;;;2.81;85.07;95280.86;106571;1276;24324;-65
2023/04/20 01:27:19;;;;;;;7.70;4.20;;;;;;;2.72;84.71;95279.06;106575;1259;23011;-65
2023/04/20 01:29:48;;;;;;;7.40;5.20;;;;;;;2.62;84.58;95277.96;106746;1276;25376;-65
2023/04/20 01:32:16;;;;;;;7.30;4.70;;;;;;;2.55;84.58;95279.48;106636;1276;22531;-65
2023/04/20 01:34:44;;;;;;;11.20;5.90;;;;;;;2.42;84.82;95282.16;106590;1276;25306;-65
2023/04/20 01:37:12;;;;;;;9.40;6.20;;;;;;;2.39;85.40;95282.31;106487;1276;25379;-65
2023/04/20 01:39:40;;;;;;;10.90;5.40;;;;;;;2.39;85.20;95281.27;106529;1276;22523;-65
2023/04/20 01:42:09;;;;;;;6.90;5.20;;;;;;;2.37;85.13;95279.69;106688;1276;22628;-65
2023/04/20 01:44:38;;;;;;;7.80;5.40;;;;;;;2.39;85.54;95283.70;106724;1276;24385;-65
2023/04/20 01:47:06;;;;;;;6.30;5.20;;;;;;;2.47;85.98;95282.37;106893;1276;25611;-65
2023/04/20 01:49:34;;;;;;;7.70;5.00;;;;;;;2.48;85.72;95286.89;106725;1276;24411;-65
2023/04/20 01:52:03;;;;;;;7.90;4.80;;;;;;;2.48;86.01;95286.88;106607;1276;22539;-66
2023/04/20 01:54:31;;;;;;;6.60;3.90;;;;;;;2.51;85.88;95285.70;106385;1276;24263;-65
2023/04/20 01:57:02;;;;;;;5.50;4.90;;;;;;;2.54;85.95;95283.98;106652;1276;22526;-65
2023/04/20 01:59:30;;;;;;;5.40;3.60;;;;;;;2.58;86.06;95285.23;106579;1276;24275;-65
2023/04/20 02:02:01;;;;;;;7.00;4.00;;;;;;;2.56;85.49;95287.98;106572;1276;24392;-65
2023/04/20 02:04:32;;;;;;;6.30;4.10;;;;;;;2.49;85.72;95290.19;106464;1276;22528;-65
2023/04/20 02:07:01;;;;;;;12.30;4.80;;;;;;;2.50;85.90;95290.73;106893;1276;22573;-65
2023/04/20 02:09:29;;;;;;;8.00;4.60;;;;;;;2.48;85.99;95292.09;106541;1276;25242;-65
2023/04/20 02:11:57;;;;;;;5.40;4.40;;;;;;;2.50;86.22;95292.10;106606;1276;22513;-65
2023/04/20 02:14:25;;;;;;;5.70;5.10;;;;;;;2.56;86.39;95288.15;106552;1276;25597;-65
2023/04/20 02:16:54;;;;;;;9.40;4.60;;;;;;;2.59;86.27;95285.59;106524;1276;22746;-65
2023/04/20 02:19:23;;;;;;;6.40;4.70;;;;;;;2.53;86.10;95288.83;106379;1276;22523;-69
2023/04/20 02:21:51;;;;;;;6.50;4.20;;;;;;;2.45;85.99;95290.86;106756;1276;24377;-65
2023/04/20 02:24:19;;;;;;;8.70;4.30;;;;;;;2.33;85.54;95290.78;106521;1276;25406;-65
2023/04/20 02:26:48;;;;;;;7.70;4.40;;;;;;;2.38;86.37;95292.02;106589;1276;24208;-65
2023/04/20 02:29:16;;;;;;;6.10;4.10;;;;;;;2.44;86.40;95289.48;106834;1276;22528;-65
2023/04/20 02:31:45;;;;;;;6.70;5.30;;;;;;;2.45;86.06;95290.52;106814;1276;22523;-65
2023/04/20 02:34:16;;;;;;;9.90;5.70;;;;;;;2.46;86.27;95291.21;106634;1276;22577;-65
2023/04/20 02:36:44;;;;;;;6.90;5.40;;;;;;;2.51;86.42;95293.16;106615;1276;22527;-66
2023/04/20 02:39:13;;;;;;;7.40;5.20;;;;;;;2.48;85.99;95290.02;106806;1276;25423;-65
2023/04/20 02:41:41;;;;;;;7.00;4.90;;;;;;;2.43;85.81;95289.80;106789;1276;24218;-65
2023/04/20 02:44:09;;;;;;;6.10;4.90;;;;;;;2.43;85.96;95287.73;106688;1276;22517;-65
2023/04/20 02:46:37;;;;;;;8.50;5.50;;;;;;;2.39;85.88;95290.13;106363;1276;22631;-65
2023/04/20 02:49:06;;;;;;;10.70;5.80;;;;;;;2.33;85.43;95291.46;106530;1276;22528;-65
2023/04/20 02:51:37;;;;;;;6.00;5.20;;;;;;;2.28;85.52;95293.16;106524;1276;22646;-65
2023/04/20 02:54:05;;;;;;;10.20;5.90;;;;;;;2.22;85.20;95295.02;106616;1276;22635;-65
2023/04/20 02:56:33;;;;;;;7.10;6.10;;;;;;;2.19;85.33;95296.20;106605;1276;22547;-65
2023/04/20 02:59:05;;;;;;;6.30;4.80;;;;;;;2.13;85.12;95291.82;106544;1276;22522;-65
2023/04/20 03:02:03;;;;;;;6.70;5.20;;;;;;;2.01;85.01;95298.12;106778;1276;23014;-65
2023/04/20 03:04:32;;;;;;;5.60;4.50;;;;;;;1.93;85.21;95297.16;106613;1276;25325;-67
2023/04/20 03:07:10;;;;;;;8.20;6.30;;;;;;;1.82;85.35;95301.76;106665;1253;22516;-65
2023/04/20 03:09:38;;;;;;;6.70;5.20;;;;;;;1.76;86.45;95303.95;106719;1276;25394;-65
2023/04/20 03:12:35;;;;;;;7.90;5.20;;;;;;;1.71;86.81;95300.59;106733;1276;22520;-65
2023/04/20 03:15:17;;;;;;;6.60;5.40;;;;;;;1.68;86.51;95299.35;106593;1276;24378;-65
2023/04/20 03:18:12;;;;;;;8.40;5.80;;;;;;;1.65;86.36;95297.58;106663;1276;25276;-65
2023/04/20 03:20:40;;;;;;;7.50;5.30;;;;;;;1.67;86.50;95297.08;106502;1276;24737;-65
2023/04/20 03:23:09;;;;;;;6.80;5.50;;;;;;;1.69;86.69;95298.85;106450;1276;25469;-65
2023/04/20 03:25:38;;;;;;;6.00;4.30;;;;;;;1.68;87.17;95294.66;106572;1276;22649;-65
2023/04/20 03:28:16;;;;;;;11.10;6.90;;;;;;;1.61;86.71;95294.23;106617;1276;22790;-65
2023/04/20 03:30:45;;;;;;;8.90;7.20;;;;;;;1.62;86.65;95293.55;106533;1253;22533;-65
2023/04/20 03:33:15;;;;;;;10.60;7.50;;;;;;;1.64;86.62;95291.51;106585;1276;22525;-65
2023/04/20 03:35:43;;;;;;;11.40;7.50;;;;;;;1.68;86.77;95289.81;106540;1276;22514;-65
2023/04/20 03:38:11;;;;;;;9.60;6.90;;;;;;;1.69;86.52;95292.08;106552;1276;22516;-65
2023/04/20 03:40:39;;;;;;;8.20;6.30;;;;;;;1.67;86.37;95293.45;106577;1276;24259;-65
2023/04/20 03:43:08;;;;;;;8.40;5.40;;;;;;;1.71;86.65;95292.96;106556;1276;22803;-65
2023/04/20 03:45:37;;;;;;;10.20;5.40;;;;;;;1.80;87.04;95297.73;106583;1276;23280;-65
2023/04/20 03:48:05;;;;;;;8.30;5.40;;;;;;;1.87;87.12;95300.59;106582;1276;24351;-65
2023/04/20 03:50:33;;;;;;;7.80;5.00;;;;;;;1.93;87.07;95298.21;106546;1276;23256;-65
2023/04/20 03:53:01;;;;;;;5.40;4.20;;;;;;;2.02;87.29;95296.05;106513;1276;24220;-65
2023/04/20 03:55:30;;;;;;;9.40;5.40;;;;;;;2.07;87.15;95301.98;106561;1276;24207;-65
2023/04/20 03:58:04;;;;;;;9.70;4.10;;;;;;;2.11;86.92;95305.85;106558;1276;25297;-65
2023/04/20 04:00:38;;;;;;;9.50;4.70;;;;;;;2.16;86.78;95299.30;106413;1276;26631;-65
2023/04/20 04:03:06;;;;;;;6.20;4.50;;;;;;;2.14;86.14;95298.06;106536;1276;22516;-65
2023/04/20 04:05:35;;;;;;;6.10;4.10;;;;;;;2.17;86.40;95293.06;106594;1276;22520;-65
2023/04/20 04:08:04;;;;;;;6.30;4.40;;;;;;;2.17;86.13;95289.42;106631;1276;24256;-65
2023/04/20 04:10:32;;;;;;;6.20;4.50;;;;;;;2.08;85.93;95292.28;106407;1276;22821;-66
2023/04/20 04:13:01;;;;;;;8.10;4.10;;;;;;;2.11;86.48;95292.66;106662;1276;22540;-65
2023/04/20 04:15:30;;;;;;;7.10;4.40;;;;;;;2.24;86.87;95293.98;106583;1253;22520;-65
2023/04/20 04:18:02;;;;;;;13.20;8.20;;;;;;;2.31;86.90;95297.52;106532;1276;24205;-65
2023/04/20 04:20:31;;;;;;;18.90;12.00;;;;;;;2.47;87.29;95299.55;106717;1276;25213;-65
2023/04/20 04:23:00;;;;;;;10.00;5.80;;;;;;;2.63;86.94;95295.16;106760;1276;25469;-65
2023/04/20 04:25:42;;;;;;;6.60;3.70;;;;;;;2.72;86.50;95293.50;106611;1276;22531;-65
2023/04/20 04:28:13;;;;;;;7.40;4.60;;;;;;;2.75;86.12;95293.84;106610;1276;25297;-65
2023/04/20 04:30:51;;;;;;;7.50;5.90;;;;;;;2.77;86.31;95297.70;106546;1276;24261;-65
2023/04/20 04:33:20;;;;;;;23.80;13.90;;;;;;;2.81;86.39;95301.54;106703;1276;24255;-65
2023/04/20 04:35:49;;;;;;;22.90;13.50;;;;;;;2.86;86.85;95299.48;106696;1276;22518;-66
2023/04/20 04:38:17;;;;;;;23.50;13.20;;;;;;;2.87;87.08;95305.73;106557;1276;22527;-65
2023/04/20 04:40:47;;;;;;;25.50;14.70;;;;;;;2.90;87.06;95301.23;106554;1276;22556;-65
2023/04/20 04:43:16;;;;;;;30.80;19.90;;;;;;;2.99;87.29;95305.13;106608;1276;25472;-65
2023/04/20 04:45:49;;;;;;;20.50;13.40;;;;;;;3.11;87.30;95302.06;106567;1272;25459;-65
2023/04/20 04:48:19;;;;;;;18.20;10.80;;;;;;;3.24;87.30;95304.04;106616;1276;25285;-65
2023/04/20 04:50:47;;;;;;;16.90;11.30;;;;;;;3.33;86.82;95302.87;106626;1276;22579;-65
2023/04/20 04:53:15;;;;;;;12.80;9.90;;;;;;;3.41;86.68;95303.60;106585;1276;25483;-65
2023/04/20 04:55:43;;;;;;;16.20;9.60;;;;;;;3.49;86.46;95305.03;106673;1276;26596;-67
2023/04/20 04:58:11;;;;;;;18.10;11.40;;;;;;;3.53;86.03;95306.78;106634;1276;22597;-67
2023/04/20 05:00:39;;;;;;;13.60;9.60;;;;;;;3.56;85.92;95302.98;106621;1276;25687;-66
2023/04/20 05:03:08;;;;;;;19.90;12.50;;;;;;;3.60;86.29;95307.16;106932;1276;23877;-69
2023/04/20 05:05:37;;;;;;;13.40;10.00;;;;;;;3.65;86.38;95306.65;106882;1276;22579;-68
2023/04/20 05:08:05;;;;;;;17.20;9.10;;;;;;;3.75;86.32;95310.16;106917;1276;22533;-69
2023/04/20 05:10:33;;;;;;;13.50;9.60;;;;;;;3.84;86.46;95310.18;106827;1276;25336;-65
2023/04/20 05:13:01;;;;;;;12.40;9.30;;;;;;;3.95;86.00;95304.65;106568;1276;22538;-67
2023/04/20 05:15:29;;;;;;;12.80;9.20;;;;;;;4.06;85.98;95298.75;106788;1276;24351;-66
2023/04/20 05:17:57;;;;;;;13.30;9.10;;;;;;;4.18;85.94;95297.02;106991;1276;25385;-65
2023/04/20 05:20:25;;;;;;;15.80;11.40;;;;;;;4.28;85.88;95297.04;107026;1276;25363;-67
2023/04/20 05:22:54;;;;;;;15.40;10.30;;;;;;;4.38;85.74;95294.25;106784;1276;22534;-67
2023/04/20 05:25:22;;;;;;;17.80;13.20;;;;;;;4.49;85.37;95296.86;106264;1276;702148;-65
2023/04/20 05:27:50;;;;;;;13.50;9.80;;;;;;;4.62;85.60;95292.17;106834;1276;22747;-67
2023/04/20 05:30:18;;;;;;;11.80;8.40;;;;;;;4.77;85.68;95288.33;106927;1276;22532;-65
2023/04/20 05:32:49;;;;;;;11.60;8.10;;;;;;;4.94;85.84;95289.87;106760;1276;24283;-64
2023/04/20 05:35:21;;;;;;;10.30;6.60;;;;;;;5.12;85.60;95286.69;107764;1276;25326;-64
2023/04/20 05:37:49;;;;;;;11.10;6.70;;;;;;;5.28;85.22;95286.12;106704;1276;24306;-66
2023/04/20 05:40:18;;;;;;;10.10;7.60;;;;;;;5.46;84.85;95282.57;107448;1276;22789;-64
2023/04/20 05:42:46;;;;;;;8.90;6.60;;;;;;;5.61;84.68;95284.43;106797;1276;22522;-65
2023/04/20 05:45:14;;;;;;;13.10;7.90;;;;;;;5.83;85.06;95285.02;106594;1276;22635;-64
2023/04/20 05:47:54;;;;;;;10.80;6.40;;;;;;;6.01;83.78;95283.21;106726;1270;24360;-66
2023/04/20 05:50:24;;;;;;;14.30;10.00;;;;;;;6.18;83.72;95287.30;106696;1276;22523;-65
2023/04/20 05:52:52;;;;;;;11.70;7.60;;;;;;;6.32;83.60;95285.98;106674;1276;22514;-65
2023/04/20 05:55:21;;;;;;;8.50;7.30;;;;;;;6.51;83.69;95290.55;106835;1276;22520;-64
2023/04/20 05:57:51;;;;;;;12.80;8.00;;;;;;;6.70;83.00;95290.40;106841;1276;23093;-64
2023/04/20 06:00:20;;;;;;;11.90;9.10;;;;;;;6.83;81.59;95295.36;106776;1266;22516;-71
2023/04/20 06:02:53;;;;;;;16.70;9.90;;;;;;;7.01;82.48;95297.64;110248;1276;22762;-66
2023/04/20 06:05:21;;;;;;;14.30;9.80;;;;;;;7.13;81.68;95303.64;106717;1276;22860;-69
2023/04/20 06:07:50;;;;;;;57.20;27.80;;;;;;;7.24;81.82;95303.01;107196;1273;25293;-68
2023/04/20 06:10:18;;;;;;;14.80;10.20;;;;;;;7.41;81.16;95298.80;106413;1275;24345;-67
2023/04/20 06:12:47;;;;;;;15.20;10.00;;;;;;;7.55;81.12;95298.13;106750;1275;25309;-67
2023/04/20 06:15:15;;;;;;;15.10;10.50;;;;;;;7.70;81.24;95298.63;106336;1275;23906;-67
2023/04/20 06:17:43;;;;;;;17.20;12.90;;;;;;;7.85;80.86;95298.81;106469;1275;22639;-67
2023/04/20 06:20:11;;;;;;;15.90;10.90;;;;;;;7.97;80.61;95296.00;106681;1275;22545;-66
2023/04/20 06:22:43;;;;;;;13.70;10.50;;;;;;;8.08;79.97;95294.29;106689;1275;24201;-66
2023/04/20 06:25:12;;;;;;;16.80;11.80;;;;;;;8.19;79.79;95292.04;106704;1275;24461;-67
2023/04/20 06:27:41;;;;;;;11.20;8.20;;;;;;;8.29;79.16;95289.44;106758;1275;22534;-66
2023/04/20 06:30:10;;;;;;;19.40;15.80;;;;;;;8.40;78.34;95284.38;106840;1273;23916;-67
2023/04/20 06:32:38;;;;;;;11.20;7.60;;;;;;;8.50;77.75;95278.81;106729;1275;23037;-67
2023/04/20 06:35:07;;;;;;;9.50;7.70;;;;;;;8.61;77.31;95271.63;106819;1275;25397;-67
2023/04/20 06:37:35;;;;;;;13.20;10.30;;;;;;;8.74;76.62;95273.18;106775;1275;23299;-67
2023/04/20 06:40:08;;;;;;;27.00;20.90;;;;;;;8.84;75.97;95280.73;106781;1275;22592;-68
2023/04/20 06:42:36;;;;;;;17.90;13.80;;;;;;;8.98;76.15;95286.64;106685;1275;25269;-70
2023/04/20 06:45:06;;;;;;;9.20;7.70;;;;;;;9.13;75.50;95280.75;106674;1275;24240;-66
2023/04/20 06:47:34;;;;;;;12.20;9.30;;;;;;;9.27;75.85;95276.27;106526;1275;22520;-67
2023/04/20 06:50:08;;;;;;;10.40;8.40;;;;;;;9.42;75.05;95277.56;106834;1275;25576;-69
2023/04/20 06:52:38;;;;;;;8.60;6.60;;;;;;;9.56;75.19;95276.08;106870;1254;24228;-69
2023/04/20 06:55:07;;;;;;;10.80;7.60;;;;;;;9.68;74.48;95277.05;107423;1253;24196;-68
2023/04/20 06:57:37;;;;;;;10.40;6.70;;;;;;;9.79;73.79;95280.88;106929;1254;24315;-69
2023/04/20 07:00:07;;;;;;;8.10;7.20;;;;;;;9.88;70.90;95277.35;106987;1275;24341;-67
2023/04/20 07:02:43;;;;;;;11.20;6.60;;;;;;;9.98;70.55;95274.69;107136;1275;25354;-67
2023/04/20 07:05:12;;;;;;;9.20;6.70;;;;;;;10.08;67.35;95275.69;107418;1275;22656;-65
2023/04/20 07:07:41;;;;;;;9.80;6.10;;;;;;;10.17;65.49;95274.63;106686;1275;22540;-69
2023/04/20 07:10:12;;;;;;;9.60;7.10;;;;;;;10.26;67.54;95271.27;106896;1275;25348;-68
2023/04/20 07:12:41;;;;;;;17.90;14.00;;;;;;;10.41;67.55;95268.48;106873;1275;24253;-67
2023/04/20 07:15:11;;;;;;;15.00;12.00;;;;;;;10.53;66.19;95267.32;106736;1275;24047;-68
2023/04/20 07:17:40;;;;;;;9.50;7.50;;;;;;;10.69;67.21;95268.17;107071;1275;24217;-67
2023/04/20 07:20:08;;;;;;;12.30;8.10;;;;;;;10.87;67.38;95267.75;107025;1275;24249;-70
2023/04/20 07:22:37;;;;;;;8.80;7.90;;;;;;;11.05;68.00;95267.63;106661;1275;25382;-71
2023/04/20 07:25:07;;;;;;;6.90;5.00;;;;;;;11.20;65.42;95268.14;106763;1275;25444;-66
2023/04/20 07:27:38;;;;;;;8.50;6.40;;;;;;;11.31;65.94;95268.19;106598;1275;22524;-63
2023/04/20 07:30:09;;;;;;;9.00;5.70;;;;;;;11.43;64.25;95270.87;106596;1275;22997;-65
2023/04/20 07:32:39;;;;;;;10.70;6.80;;;;;;;11.53;64.07;95273.77;106592;1275;24043;-63
2023/04/20 07:35:08;;;;;;;7.90;5.50;;;;;;;11.62;61.99;95275.95;106548;1275;25258;-64
2023/04/20 07:37:36;;;;;;;12.00;7.90;;;;;;;11.70;61.84;95276.63;106685;1275;24271;-64
2023/04/20 07:40:05;;;;;;;10.10;5.50;;;;;;;11.79;60.98;95270.58;106795;1275;25496;-65
2023/04/20 07:42:35;;;;;;;7.30;5.80;;;;;;;11.81;58.18;95266.64;106695;1275;24196;-66
2023/04/20 07:45:05;;;;;;;19.40;15.00;;;;;;;11.87;57.54;95264.89;107739;1275;25364;-66
2023/04/20 07:47:34;;;;;;;14.50;9.00;;;;;;;11.93;58.60;95266.65;106781;1275;22608;-68
2023/04/20 07:50:04;;;;;;;8.20;6.60;;;;;;;12.06;59.15;95264.00;106851;1275;23334;-66
2023/04/20 07:52:33;;;;;;;8.00;5.80;;;;;;;12.23;59.51;95267.20;106656;1275;24246;-65
2023/04/20 07:55:01;;;;;;;7.20;5.50;;;;;;;12.40;59.08;95267.70;106640;1275;22532;-66
2023/04/20 07:57:31;;;;;;;10.00;6.00;;;;;;;12.55;57.78;95269.39;106889;1275;26640;-66
2023/04/20 07:59:59;;;;;;;7.20;5.30;;;;;;;12.70;57.34;95273.13;106806;1265;22528;-65
2023/04/20 08:02:27;;;;;;;9.70;5.90;;;;;;;12.85;56.74;95276.02;106899;1275;23926;-65
2023/04/20 08:04:56;;;;;;;9.90;6.20;;;;;;;12.96;55.35;95276.35;106796;1275;22518;-66
2023/04/20 08:07:25;;;;;;;9.80;5.50;;;;;;;13.10;55.10;95276.96;109833;1275;22797;-64
2023/04/20 08:09:53;;;;;;;9.70;6.20;;;;;;;13.33;55.31;95280.63;106510;1275;23957;-65
2023/04/20 08:12:21;;;;;;;15.80;13.00;;;;;;;13.56;56.11;95278.23;106800;1275;22534;-67
2023/04/20 08:14:50;;;;;;;14.30;10.00;;;;;;;13.77;53.58;95277.65;106835;1275;24385;-68
2023/04/20 08:17:19;;;;;;;11.40;9.80;;;;;;;13.82;53.49;95278.19;106837;1275;24493;-67
2023/04/20 08:19:47;;;;;;;23.50;17.20;;;;;;;13.82;54.39;95282.59;107283;1275;25327;-65
2023/04/20 08:22:15;;;;;;;15.80;12.30;;;;;;;13.91;54.00;95274.68;106596;1275;25460;-65
2023/04/20 08:24:44;;;;;;;8.90;6.40;;;;;;;14.05;53.57;95274.34;106496;1275;25526;-67
2023/04/20 08:27:12;;;;;;;6.90;5.60;;;;;;;14.18;50.55;95269.94;106815;1275;24244;-66
2023/04/20 08:29:40;;;;;;;9.80;5.90;;;;;;;14.26;49.82;95267.17;106785;1275;22625;-67
2023/04/20 08:32:11;;;;;;;7.20;5.20;;;;;;;14.36;51.45;95270.67;106703;1275;24302;-66
2023/04/20 08:34:39;;;;;;;5.50;4.90;;;;;;;14.37;50.75;95275.96;106709;1275;22663;-68
2023/04/20 08:37:08;;;;;;;6.40;4.80;;;;;;;14.30;50.24;95275.33;106787;1275;23884;-68
2023/04/20 08:39:37;;;;;;;6.40;4.50;;;;;;;14.09;49.32;95275.80;107151;1275;22541;-69
2023/04/20 08:42:06;;;;;;;4.00;3.60;;;;;;;13.90;49.54;95279.30;106931;1275;23686;-68
2023/04/20 08:44:34;;;;;;;8.90;4.20;;;;;;;13.77;49.21;95285.79;106453;1275;25399;-68
2023/04/20 08:47:02;;;;;;;8.50;3.70;;;;;;;13.74;49.95;95284.48;106544;1275;22532;-68
2023/04/20 08:49:31;;;;;;;6.00;4.00;;;;;;;13.78;50.83;95279.94;108033;1275;24333;-67
2023/04/20 08:52:00;;;;;;;8.30;5.50;;;;;;;13.83;50.53;95280.11;106510;1275;23916;-67
2023/04/20 08:54:28;;;;;;;9.40;5.40;;;;;;;13.97;50.66;95277.84;106808;1275;22525;-64
2023/04/20 08:56:57;;;;;;;7.30;4.90;;;;;;;14.14;50.67;95270.99;106429;1275;22683;-68
2023/04/20 08:59:26;;;;;;;8.00;5.00;;;;;;;14.37;51.28;95269.23;106509;1267;22517;-71
2023/04/20 09:01:54;;;;;;;9.10;4.50;;;;;;;14.69;50.32;95270.48;106788;1275;24229;-70
2023/04/20 09:04:25;;;;;;;7.10;4.70;;;;;;;14.89;48.10;95264.91;107034;1274;22534;-69
2023/04/20 09:06:55;;;;;;;13.30;8.90;;;;;;;15.15;49.07;95263.48;106915;1275;24370;-68
2023/04/20 09:09:26;;;;;;;12.20;9.70;;;;;;;15.45;48.69;95262.06;106922;1275;22521;-67
2023/04/20 09:12:06;;;;;;;13.50;8.90;;;;;;;15.67;46.33;95261.83;106807;1275;26112;-66
2023/04/20 09:14:46;;;;;;;18.10;13.00;;;;;;;15.81;44.97;95256.79;109805;1275;22590;-65
2023/04/20 09:17:16;;;;;;;10.30;8.60;;;;;;;15.97;47.00;95257.11;106598;1275;22655;-66
2023/04/20 09:19:53;;;;;;;8.30;4.90;;;;;;;16.25;47.31;95256.55;106852;1275;24216;-67
2023/04/20 09:22:35;;;;;;;5.50;4.10;;;;;;;16.41;46.49;95259.18;107132;1275;23299;-66
2023/04/20 09:25:14;;;;;;;4.90;3.90;;;;;;;16.41;46.56;95258.68;106734;1275;22555;-66
2023/04/20 09:27:42;;;;;;;4.90;4.10;;;;;;;16.34;45.60;95259.14;106723;1274;25233;-66
2023/04/20 09:30:11;;;;;;;7.30;4.50;;;;;;;16.39;45.32;95259.27;106705;1274;24401;-66
2023/04/20 09:32:39;;;;;;;5.20;4.50;;;;;;;16.72;45.64;95257.72;106722;1275;22648;-66
2023/04/20 09:35:08;;;;;;;5.60;3.90;;;;;;;16.94;44.81;95257.61;106688;1275;25323;-66
2023/04/20 09:37:46;;;;;;;7.10;4.60;;;;;;;16.82;43.69;95259.41;106623;1275;22631;-66
2023/04/20 09:40:15;;;;;;;6.70;4.30;;;;;;;16.74;45.10;95267.04;106794;1274;22525;-66
2023/04/20 09:42:44;;;;;;;6.30;4.80;;;;;;;16.64;45.04;95266.83;107062;1275;25347;-66
2023/04/20 09:45:15;;;;;;;7.70;4.20;;;;;;;16.52;45.49;95266.66;106775;1274;22528;-66
2023/04/20 09:47:44;;;;;;;5.80;3.90;;;;;;;16.48;45.76;95265.10;106791;1274;26707;-66
2023/04/20 09:50:13;;;;;;;12.20;7.90;;;;;;;16.57;45.64;95266.77;107063;1274;24542;-66
2023/04/20 09:52:59;;;;;;;8.30;4.10;;;;;;;16.76;44.73;95263.75;106873;1275;25298;-66
2023/04/20 09:55:30;;;;;;;13.20;11.10;;;;;;;16.81;44.93;95265.67;106743;1274;25400;-66
2023/04/20 09:58:01;;;;;;;6.40;3.70;;;;;;;16.81;44.71;95261.59;106744;1275;25533;-66
2023/04/20 10:00:30;;;;;;;6.10;3.90;;;;;;;17.00;44.07;95256.60;106787;1274;24242;-66
2023/04/20 10:02:58;;;;;;;6.60;4.10;;;;;;;17.22;44.04;95251.05;106765;1274;25466;-66
2023/04/20 10:05:38;;;;;;;6.20;4.10;;;;;;;17.55;43.52;95251.88;106682;1274;22521;-66
2023/04/20 10:08:06;;;;;;;6.40;4.20;;;;;;;17.72;42.24;95244.77;106670;1274;22527;-66
2023/04/20 10:10:46;;;;;;;5.80;4.00;;;;;;;17.86;43.39;95242.30;106608;1274;22518;-66
2023/04/20 10:13:20;;;;;;;5.10;3.60;;;;;;;18.16;44.50;95237.27;106789;1274;24207;-66
2023/04/20 10:15:48;;;;;;;8.10;4.20;;;;;;;18.46;42.72;95234.80;106775;1274;22534;-66
2023/04/20 10:18:19;;;;;;;4.30;3.80;;;;;;;18.50;40.61;95234.54;106603;1274;22532;-66
2023/04/20 10:20:48;;;;;;;8.50;4.50;;;;;;;18.29;39.83;95228.05;106771;1274;23233;-68
2023/04/20 10:23:18;;;;;;;4.70;3.60;;;;;;;17.89;40.33;95236.91;106698;1274;25651;-66
2023/04/20 10:25:59;;;;;;;5.20;3.60;;;;;;;17.45;40.62;95238.17;106601;1274;22640;-66
2023/04/20 10:28:41;;;;;;;4.90;4.10;;;;;;;17.19;41.72;95241.61;106689;1274;22536;-66
2023/04/20 10:31:15;;;;;;;8.30;3.60;;;;;;;16.93;42.81;95241.98;106722;1274;22516;-67
2023/04/20 10:33:54;;;;;;;4.60;3.70;;;;;;;16.64;42.64;95244.80;106756;1274;22531;-66
2023/04/20 10:36:29;;;;;;;5.90;3.50;;;;;;;16.50;42.51;95241.75;106757;1274;22632;-67
2023/04/20 10:39:00;;;;;;;10.40;7.20;;;;;;;16.41;43.20;95239.63;106754;1274;24261;-66
2023/04/20 10:41:28;;;;;;;35.80;22.00;;;;;;;16.45;43.00;95242.50;106719;1274;22644;-66
2023/04/20 10:44:07;;;;;;;13.20;6.50;;;;;;;16.75;42.83;95240.73;106711;1274;22542;-66
2023/04/20 10:46:35;;;;;;;4.50;2.80;;;;;;;16.76;41.91;95241.56;106728;1274;25413;-66
2023/04/20 10:49:04;;;;;;;6.50;3.00;;;;;;;16.56;41.70;95238.25;106762;1274;24223;-66
2023/04/20 10:51:32;;;;;;;5.60;3.20;;;;;;;16.39;41.16;95234.63;106754;1274;22525;-66
2023/04/20 10:54:05;;;;;;;5.70;3.20;;;;;;;16.35;41.83;95238.72;106714;1274;23912;-66
2023/04/20 10:56:37;;;;;;;5.40;3.30;;;;;;;16.32;42.75;95242.05;106707;1275;22644;-66
2023/04/20 10:59:14;;;;;;;4.60;3.20;;;;;;;16.28;42.94;95241.55;106593;1275;25388;-66
2023/04/20 11:01:44;;;;;;;10.70;4.70;;;;;;;16.13;41.96;95241.17;106772;1274;25396;-66
2023/04/20 11:04:12;;;;;;;20.70;11.20;;;;;;;16.10;43.71;95241.66;106773;1274;24197;-67
2023/04/20 11:06:46;;;;;;;9.30;7.00;;;;;;;16.20;43.84;95241.70;106750;1274;22531;-66
2023/04/20 11:09:18;;;;;;;11.60;8.40;;;;;;;16.14;44.29;95236.66;106737;1274;22532;-66
2023/04/20 11:12:01;;;;;;;8.20;5.70;;;;;;;15.93;44.83;95235.30;106839;1274;24208;-66
2023/04/20 11:14:31;;;;;;;10.70;5.40;;;;;;;15.74;44.69;95234.04;106741;1274;22574;-66
2023/04/20 11:16:59;;;;;;;10.20;7.50;;;;;;;15.57;45.20;95239.52;106749;1274;25390;-66
2023/04/20 11:19:33;;;;;;;9.00;5.60;;;;;;;15.38;46.11;95243.02;106691;1274;22591;-66
2023/04/20 11:22:02;;;;;;;;;;;;;;;15.31;46.60;95241.17;106754;1274;25262;-66
2023/04/20 11:24:36;;;;;;;9.50;5.40;;;;;;;15.20;47.26;95240.41;106868;1274;25224;-66
2023/04/20 11:27:04;;;;;;;16.70;10.00;;;;;;;15.14;47.38;95241.02;106627;1274;22555;-66
2023/04/20 11:29:37;;;;;;;14.40;12.00;;;;;;;15.17;48.01;95241.61;106703;1275;23380;-66
2023/04/20 11:32:08;;;;;;;12.60;8.00;;;;;;;15.28;47.96;95240.27;106720;1275;22511;-67
2023/04/20 11:34:38;;;;;;;11.10;6.40;;;;;;;15.58;48.09;95236.31;106631;1275;24298;-66
2023/04/20 11:37:09;;;;;;;12.90;5.50;;;;;;;15.80;47.51;95228.80;106697;1260;22552;-66
2023/04/20 11:39:38;;;;;;;10.60;5.50;;;;;;;16.28;45.79;95225.90;106782;1274;24038;-67